Plácido de Castro Airport
SBRB : now visible

Airfield :











YOU CAN JOIN US ON...

 
LOGIN :

Register | Disclaimer

   EN    FR    IT 

 









Legend :    VFR   Marginal VFR   IFR   Intensive IFR   Very Intensive IFR
Visi :
Ceiling :
>= 8 km
>= 3000ft
5 to 8 km
1000 to 3000 ft
1500m to 5 km
500 to 1000 ft
800 to 1500m
200 to 500 ft
< 800m
< 200 ft
Symbols :   Thunderstorms  Fog  Heavy snow  Heavy precipitations  Wind > 20 kt






- Airport Elevation : 633 ft
- IATA code : RBR


SBRB - Plácido de Castro

CURRENT METAR :
  • 072200Z 03006KT 9999 SCT020 SCT100 27/25 Q1007

EXPIRED METARs :
  • 072100Z 04007KT 010V090 9999 SCT020 FEW025TCU BKN100 28/25 Q1007
  • 072000Z 33006KT 290V360 9999 VCSH BKN020 FEW025TCU BKN100 28/24 Q1008
  • 071900Z 33004KT 260V020 9999 BKN030 31/23 Q1009

TAF TAF SBRB
Valid from the 07 at 18:00 until the 08 at 06:00 UTC


071500Z 0718/0806 29005KT 9999 BKN010 TX30/0719Z TN23/0806Z
PROB30
TEMPO 0721/0724 4000 TSRA BKN010 FEW025CB
BECMG 0800/0802 05005KT BKN008 RMK PGY



MET'MAP, your aeronautical weather chart ! - Copyright ORBIFLY December 2007 - Disclaimer

ORBIFLY MET'MAP TEAM :

Programming & Development : Alexandra Zaïnal
Concept & original design : Baudouin d'Aumeries
Assistance for programming : Marc-Olivier Méhu
Technical & hardware support : Manuel Goepfert

Contact : metmap@orbifly.com




SOURCES & CREDITS :

   NOAA       Earth
Advisory